Latest Weather Observations for Tarcoola

IDS60801

Issued at 8:31 pm CST Thursday 24 September 2020 (issued every 10 minutes, with the page automatically refreshed every 10 minutes)

About weather observations | Map of weather stations | Latest weather observations for SA | Other Formats
Station Details ID: 016098 Name: TARCOOLA AERO Lat: -30.71 Lon: 134.58 Height: 123.0 m
Data from the previous 72 hours. | See also: Recent months at Tarcoola
Date/Time
CST
Temp
°C
App
Temp
°C
Dew
Point
°C
Rel
Hum
%
Delta-T
°C
Wind Press
QNH
hPa
Press
MSL
hPa
Rain since
9am
mm
Dir  Spd
km/h
Gust
km/h
Spd
kts
Gust
kts
24/08:30pm 16.6 10.0 2.2 38 6.5 WSW 26 35 14 19 1016.6 1016.4 0.0
24/08:00pm 17.1 9.6 1.5 35 7.0 WSW 30 41 16 22 1016.4 1016.2 0.0
24/07:30pm 17.7 11.3 1.2 33 7.4 WSW 24 35 13 19 1016.1 1015.9 0.0
24/07:00pm 18.1 11.9 2.0 34 7.3 W 24 35 13 19 1016.0 1015.8 0.0
24/06:30pm 18.6 11.6 2.0 33 7.6 W 28 41 15 22 1015.8 1015.6 0.0
24/06:00pm 19.0 11.2 2.0 32 7.8 WSW 32 43 17 23 1015.7 1015.5 0.0
24/05:30pm 19.9 12.9 1.8 30 8.3 W 28 41 15 22 1015.6 1015.4 0.0
24/05:00pm 20.2 13.3 2.5 31 8.3 WSW 28 37 15 20 1015.7 1015.5 0.0
24/04:30pm 20.8 13.7 1.6 28 8.9 WSW 28 37 15 20 1015.9 1015.7 0.0
24/04:00pm 20.9 13.6 2.2 29 8.7 WSW 30 48 16 26 1016.3 1016.1 0.0
24/03:57pm 21.0 13.7 2.3 29 8.8 W 30 48 16 26 1016.3 1016.1 0.0
24/03:30pm 20.3 13.8 2.6 31 8.3 WSW 26 39 14 21 1016.5 1016.3 0.0
24/03:01pm 20.1 13.3 2.9 32 8.1 W 28 46 15 25 1017.0 1016.8 0.0
24/03:00pm 19.8 12.5 2.2 31 8.1 W 30 46 16 25 1017.0 1016.8 0.0
24/02:57pm 20.4 13.5 2.7 31 8.3 W 28 46 15 25 1016.9 1016.7 0.0
24/02:30pm 20.1 13.2 2.5 31 8.2 W 28 43 15 23 1017.5 1017.3 0.0
24/02:00pm 20.1 14.3 2.5 31 8.2 W 22 41 12 22 1018.0 1017.8 0.0
24/01:30pm 20.0 14.0 3.3 33 7.9 W 24 41 13 22 1018.7 1018.5 0.0
24/01:00pm 18.8 12.7 2.6 34 7.5 WNW 24 35 13 19 1019.3 1019.1 0.0
24/12:30pm 18.9 13.8 3.9 37 7.1 W 20 39 11 21 1019.9 1019.8 0.0
24/12:00pm 17.2 11.5 2.8 38 6.6 W 22 32 12 17 1020.8 1020.6 0.0
24/11:30am 17.4 12.2 3.7 40 6.4 W 20 32 11 17 1021.2 1021.0 0.0
24/11:00am 16.4 12.3 4.1 44 5.8 W 15 26 8 14 1021.6 1021.4 0.0
24/10:30am 15.9 11.0 4.0 45 5.5 WNW 19 30 10 16 1022.1 1021.9 0.0
24/10:00am 15.4 10.9 4.2 47 5.2 WSW 17 28 9 15 1022.6 1022.4 0.0
24/09:30am 14.2 10.4 3.9 50 4.7 WSW 13 20 7 11 1022.8 1022.6 0.0
24/09:00am 13.7 9.5 4.0 52 4.4 W 15 19 8 10 1023.0 1022.8 0.0
24/08:30am 12.8 9.1 4.3 56 3.9 WSW 13 17 7 9 1022.8 1022.6 0.0
24/08:00am 11.1 8.1 4.3 63 3.1 WSW 9 13 5 7 1023.1 1022.9 0.0
24/07:30am 8.8 7.2 4.6 75 1.9 WSW 2 7 1 4 1023.3 1023.1 0.0
24/07:00am 6.8 5.5 4.3 84 1.1 CALM 0 0 0 0 1023.4 1023.2 0.0
24/06:30am 5.2 3.7 3.2 87 0.8 CALM 0 0 0 0 1023.2 1023.0 0.0
24/06:00am 5.3 3.8 3.2 86 0.9 CALM 0 0 0 0 1023.0 1022.8 0.0
24/05:30am 5.7 3.1 3.4 85 1.0 WSW 6 7 3 4 1022.8 1022.6 0.0
24/05:00am 5.9 3.7 3.6 85 1.0 WSW 4 7 2 4 1022.5 1022.3 0.0
24/04:30am 6.1 4.7 3.8 85 1.0 CALM 0 4 0 2 1022.4 1022.2 0.0
24/04:00am 6.5 4.0 3.8 83 1.2 WSW 6 7 3 4 1022.3 1022.1 0.0
24/03:30am 6.6 4.1 3.9 83 1.2 WSW 6 6 3 3 1022.5 1022.3 0.0
24/03:00am 7.1 4.7 4.1 81 1.3 WSW 6 7 3 4 1022.7 1022.5 0.0
24/02:30am 7.3 4.6 3.9 79 1.5 WSW 7 9 4 5 1022.9 1022.7 0.0
24/02:00am 7.7 5.2 3.7 76 1.7 SW 6 7 3 4 1023.1 1022.9 0.0
24/01:30am 8.2 5.7 3.9 74 1.9 SW 6 7 3 4 1023.6 1023.4 0.0
24/01:00am 8.7 6.2 3.7 71 2.2 SW 6 7 3 4 1023.9 1023.7 0.0
24/12:30am 9.5 6.5 3.9 68 2.5 SSW 9 9 5 5 1024.1 1023.9 0.0
24/12:00am 10.6 7.3 4.3 65 2.8 SSW 11 13 6 7 1024.2 1024.0 0.0
 
Date/Time
CST
Temp
°C
App
Temp
°C
Dew
Point
°C
Rel
Hum
%
Delta-T
°C
Wind Press
QNH
hPa
Press
MSL
hPa
Rain since
9am
mm
Dir  Spd
km/h
Gust
km/h
Spd
kts
Gust
kts
23/11:30pm 11.2 7.9 4.4 63 3.1 SSW 11 13 6 7 1024.4 1024.2 0.0
23/11:00pm 11.5 8.2 4.5 62 3.2 SW 11 15 6 8 1024.6 1024.4 0.0
23/10:30pm 12.2 8.1 4.4 59 3.5 SSW 15 22 8 12 1024.7 1024.5 0.0
23/10:00pm 12.8 8.4 4.5 57 3.8 SSW 17 22 9 12 1024.7 1024.5 0.0
23/09:30pm 13.3 8.9 4.7 56 4.0 SSW 17 22 9 12 1024.8 1024.6 0.0
23/09:00pm 13.8 9.4 4.9 55 4.1 SSW 17 26 9 14 1024.6 1024.4 0.0
23/08:30pm 14.6 9.7 4.9 52 4.5 SSW 20 32 11 17 1024.3 1024.1 0.0
23/08:00pm 15.1 9.4 4.8 50 4.9 SSW 24 32 13 17 1023.9 1023.7 0.0
23/07:30pm 16.0 10.3 4.7 47 5.3 S 24 35 13 19 1023.7 1023.5 0.0
23/07:00pm 16.7 11.4 5.0 46 5.6 SSW 22 33 12 18 1023.3 1023.1 0.0
23/06:30pm 17.4 11.3 4.7 43 6.1 SSW 26 37 14 20 1023.0 1022.8 0.0
23/06:00pm 18.7 12.8 3.7 37 7.1 SSW 24 35 13 19 1022.7 1022.5 0.0
23/05:30pm 19.3 13.6 2.6 33 7.7 SW 22 30 12 16 1022.5 1022.3 0.0
23/05:00pm 20.1 13.7 3.3 33 8.0 SSW 26 39 14 21 1022.4 1022.2 0.0
23/04:30pm 19.7 14.5 3.8 35 7.6 WSW 20 30 11 16 1022.3 1022.1 0.0
23/04:00pm 20.4 15.2 3.6 33 8.0 SW 20 32 11 17 1022.4 1022.2 0.0
23/03:30pm 19.8 13.9 3.9 35 7.6 SW 24 33 13 18 1022.5 1022.3 0.0
23/03:00pm 20.1 14.2 3.8 34 7.8 SW 24 37 13 20 1022.8 1022.6 0.0
23/02:30pm 20.1 14.1 3.3 33 7.9 SW 24 46 13 25 1022.8 1022.6 0.0
23/02:00pm 19.7 13.4 3.8 35 7.6 SW 26 43 14 23 1023.0 1022.8 0.0
23/01:30pm 19.1 12.9 4.1 37 7.2 SW 26 41 14 22 1023.3 1023.1 0.0
23/01:00pm 19.9 14.9 4.4 36 7.5 SW 20 30 11 16 1023.6 1023.4 0.0
23/12:30pm 19.4 14.0 4.7 38 7.1 WSW 22 35 12 19 1024.0 1023.8 0.0
23/12:00pm 17.7 12.5 5.6 45 5.9 SW 22 28 12 15 1024.6 1024.4 0.0
23/11:30am 17.5 12.0 5.8 46 5.7 WSW 24 33 13 18 1025.0 1024.8 0.0
23/11:00am 17.5 12.5 6.4 48 5.5 SW 22 30 12 16 1025.3 1025.1 0.0
23/10:30am 16.5 11.5 6.3 51 5.0 WSW 22 32 12 17 1025.7 1025.5 0.0
23/10:00am 16.1 10.7 6.5 53 4.7 WSW 24 33 13 18 1025.7 1025.5 0.0
23/09:30am 15.4 11.1 7.7 60 3.8 WSW 20 32 11 17 1025.5 1025.3 0.0
23/09:00am 14.5 10.4 7.8 64 3.3 WSW 19 24 10 13 1025.5 1025.3 0.0
23/08:30am 13.8 10.1 7.8 67 3.0 WSW 17 20 9 11 1025.4 1025.2 0.0
23/08:00am 12.5 8.6 7.2 70 2.6 WSW 17 22 9 12 1025.1 1024.9 0.0
23/07:30am 10.7 7.4 6.6 76 1.9 WSW 13 17 7 9 1024.9 1024.7 0.0
23/07:00am 8.7 6.1 6.3 85 1.1 WSW 9 11 5 6 1024.4 1024.2 0.0
23/06:30am 7.6 4.9 5.4 86 1.0 WSW 9 11 5 6 1024.1 1023.9 0.0
23/06:00am 7.9 5.2 5.5 85 1.1 WSW 9 11 5 6 1023.7 1023.5 0.0
23/05:30am 8.7 6.1 6.0 83 1.2 W 9 11 5 6 1023.4 1023.2 0.0
23/05:00am 8.9 6.7 6.0 82 1.3 W 7 9 4 5 1023.0 1022.8 0.0
23/04:30am 8.9 6.3 6.2 83 1.2 WNW 9 11 5 6 1022.9 1022.7 0.0
23/04:00am 8.5 6.4 6.0 84 1.1 W 6 11 3 6 1022.7 1022.5 0.0
23/03:30am 8.9 6.6 5.8 81 1.4 W 7 7 4 4 1022.7 1022.5 0.0
23/03:00am 9.3 7.1 6.0 80 1.5 W 7 9 4 5 1022.8 1022.6 0.0
23/02:30am 9.4 7.1 5.9 79 1.6 W 7 9 4 5 1023.1 1022.9 0.0
23/02:00am 9.7 7.1 6.1 78 1.7 W 9 9 5 5 1023.0 1022.8 0.0
23/01:30am 9.9 7.3 6.1 77 1.8 WSW 9 9 5 5 1023.1 1022.9 0.0
23/01:00am 10.2 7.5 5.8 74 2.0 WSW 9 9 5 5 1023.1 1022.9 0.0
23/12:30am 11.2 8.6 5.9 70 2.5 SW 9 11 5 6 1023.0 1022.8 0.0
23/12:00am 12.2 8.9 6.3 67 2.8 SW 13 17 7 9 1023.1 1022.9 0.0
 
Date/Time
CST
Temp
°C
App
Temp
°C
Dew
Point
°C
Rel
Hum
%
Delta-T
°C
Wind Press
QNH
hPa
Press
MSL
hPa
Rain since
9am
mm
Dir  Spd
km/h
Gust
km/h
Spd
kts
Gust
kts
22/11:30pm 12.6 8.8 6.0 64 3.1 SW 15 20 8 11 1023.2 1023.0 0.0
22/11:00pm 13.1 9.0 6.2 63 3.3 SW 17 22 9 12 1023.4 1023.2 0.0
22/10:30pm 13.6 9.2 6.5 62 3.4 SSW 19 26 10 14 1023.2 1023.0 0.0
22/10:00pm 14.0 9.9 6.1 59 3.8 SW 17 22 9 12 1023.1 1022.9 0.0
22/09:30pm 14.6 9.2 6.2 57 4.0 SW 24 32 13 17 1023.1 1022.9 0.0
22/09:00pm 15.2 9.7 6.0 54 4.4 SW 24 30 13 16 1022.7 1022.5 0.0
22/08:30pm 15.8 9.9 5.7 51 4.9 SSW 26 35 14 19 1022.1 1021.9 0.0
22/08:00pm 17.0 12.1 5.0 45 5.8 SW 20 28 11 15 1021.4 1021.2 0.0
22/07:30pm 17.7 11.8 3.9 40 6.5 SW 24 30 13 16 1020.6 1020.4 0.0
22/07:00pm 18.6 12.6 1.2 31 7.8 WSW 22 32 12 17 1019.9 1019.8 0.0
22/06:30pm 18.9 12.5 1.0 30 8.0 W 24 32 13 17 1019.5 1019.3 0.0
22/06:00pm 19.7 12.6 1.2 29 8.4 WSW 28 39 15 21 1019.1 1018.9 0.0
22/05:30pm 20.3 12.8 1.2 28 8.7 W 30 43 16 23 1018.7 1018.5 0.0
22/05:00pm 20.9 13.4 1.2 27 9.0 W 30 39 16 21 1018.3 1018.1 0.0
22/04:30pm 20.8 12.7 1.1 27 9.0 W 33 44 18 24 1018.1 1017.9 0.0
22/04:00pm 21.1 13.3 1.4 27 9.1 W 32 46 17 25 1018.0 1017.8 0.0
22/03:30pm 20.6 12.8 1.5 28 8.8 WSW 32 43 17 23 1017.8 1017.6 0.0
22/03:04pm 21.0 13.2 1.8 28 8.9 WSW 32 50 17 27 1017.8 1017.6 0.0
22/03:00pm 21.4 13.7 2.2 28 9.0 WSW 32 44 17 24 1017.7 1017.5 0.0
22/02:30pm 20.9 13.3 2.7 30 8.6 WSW 32 44 17 24 1017.9 1017.7 0.0
22/02:00pm 21.3 14.5 3.0 30 8.7 WSW 28 39 15 21 1018.2 1018.0 0.0
22/01:30pm 20.8 13.5 2.6 30 8.6 WSW 30 41 16 22 1018.5 1018.3 0.0
22/01:00pm 19.8 13.3 2.6 32 8.0 W 26 41 14 22 1019.0 1018.8 0.0
22/12:30pm 19.0 11.8 2.8 34 7.5 WNW 30 41 16 22 1019.1 1018.9 0.0
22/12:00pm 18.7 11.9 2.9 35 7.3 W 28 41 15 22 1019.7 1019.5 0.0
22/11:30am 18.2 11.5 3.7 38 6.8 W 28 39 15 21 1019.9 1019.8 0.0
22/11:00am 17.8 11.5 3.7 39 6.6 W 26 43 14 23 1020.0 1019.9 0.0
22/10:30am 17.3 11.2 4.6 43 6.0 W 26 35 14 19 1020.2 1020.1 0.0
22/10:00am 16.6 10.6 5.3 47 5.4 WSW 26 41 14 22 1020.1 1020.0 0.0
22/09:30am 15.8 9.4 5.1 49 5.1 W 28 41 15 22 1020.2 1020.1 0.0
22/09:00am 15.1 9.6 5.9 54 4.4 W 24 32 13 17 1020.0 1019.9 0.0
22/08:30am 14.4 9.1 7.0 61 3.6 W 24 33 13 18 1019.8 1019.6 0.0
22/08:00am 13.2 8.8 7.6 69 2.8 WNW 20 26 11 14 1019.1 1018.9 0.0
22/07:30am 12.0 7.9 7.7 75 2.1 WNW 19 24 10 13 1018.7 1018.5 0.0
22/07:00am 10.9 7.2 7.8 81 1.5 NW 17 19 9 10 1018.4 1018.2 0.0
22/06:30am 10.4 7.0 7.6 83 1.3 NW 15 19 8 10 1018.1 1017.9 0.0
22/06:00am 10.6 6.8 7.5 81 1.5 NW 17 19 9 10 1017.9 1017.7 0.0
22/05:30am 10.9 7.5 7.6 80 1.6 WNW 15 20 8 11 1017.6 1017.4 0.0
22/05:00am 11.1 7.3 7.6 79 1.7 WNW 17 22 9 12 1017.2 1017.0 0.0
22/04:30am 11.4 7.6 7.7 78 1.8 W 17 20 9 11 1017.0 1016.8 0.0
22/04:00am 11.5 8.0 7.4 76 2.0 W 15 20 8 11 1016.9 1016.7 0.0
22/03:30am 11.6 8.1 7.3 75 2.1 W 15 20 8 11 1016.9 1016.7 0.0
22/03:00am 11.8 8.7 7.1 73 2.3 W 13 19 7 10 1016.7 1016.5 0.0
22/02:30am 12.3 8.0 6.8 69 2.6 WSW 19 26 10 14 1016.7 1016.5 0.0
22/02:00am 12.6 8.2 6.6 67 2.9 WSW 19 26 10 14 1016.8 1016.6 0.0
22/01:30am 13.0 9.2 5.9 62 3.4 W 15 22 8 12 1016.8 1016.6 0.0
22/01:00am 13.4 8.8 5.6 59 3.7 W 19 22 10 12 1016.7 1016.5 0.0
22/12:30am 13.7 9.4 5.3 57 4.0 W 17 22 9 12 1016.7 1016.5 0.0
22/12:00am 14.1 9.7 4.9 54 4.3 W 17 22 9 12 1016.7 1016.5 0.0
 
Date/Time
CST
Temp
°C
App
Temp
°C
Dew
Point
°C
Rel
Hum
%
Delta-T
°C
Wind Press
QNH
hPa
Press
MSL
hPa
Rain since
9am
mm
Dir  Spd
km/h
Gust
km/h
Spd
kts
Gust
kts
21/11:30pm 14.5 10.9 4.8 52 4.5 WSW 13 17 7 9 1016.6 1016.4 0.0
21/11:00pm 14.7 10.7 4.7 51 4.7 W 15 20 8 11 1016.6 1016.4 0.0
21/10:30pm 14.9 10.4 4.0 48 5.0 WSW 17 24 9 13 1016.4 1016.2 0.0
21/10:00pm 15.2 10.6 3.7 46 5.3 WSW 17 19 9 10 1016.3 1016.1 0.0
21/09:30pm 16.0 10.4 3.4 43 5.8 WSW 22 32 12 17 1016.3 1016.1 0.0
21/09:00pm 16.3 10.8 2.0 38 6.4 WSW 20 26 11 14 1016.1 1015.9 0.0

Other formats

Comma delimited format used in spreadsheet applications
http://www.bom.gov.au/fwo/IDS60801/IDS60801.94655.axf

JavaScript Object Notation format (JSON) in row-major order
http://www.bom.gov.au/fwo/IDS60801/IDS60801.94655.json

Data quality

Most of these data are generated automatically and are frequently updated. Quality checks on data are not normally performed. It is possible for incorrect values to appear. Refer to information at About Latest Weather Observations and please check the disclaimer before using these data.